KYNG/YNG METAR and TAF weather

Enter ICAO airport designator
Station Type Date Time Source
KYNG METAR 2021/04/13 22:51 UTC NOAA

KYNG 132251Z 23010KT 10SM SCT060 BKN250 17/02 A3006 RMK AO2 SLP180 T01720022 $


Station Type Date Time Source
KYNG Decoded METAR 2021/04/13 22:51 UTC NOAA

YOUNGSTOWN-WARREN REG AIRPRT, OH, United States (KYNG) 41-15N 080-40W 360M
Apr 13, 2021 - 06:51 PM EDT / 2021.04.13 2251 UTC
Wind: from the SW (230 degrees) at 12 MPH (10 KT):0
Visibility: 10 mile(s):0
Sky conditions: mostly cloudy
Temperature: 63.0 F (17.2 C)
Dew Point: 36.0 F (2.2 C)
Relative Humidity: 36%
Pressure (altimeter): 30.06 in. Hg (1017 hPa)
ob: KYNG 132251Z 23010KT 10SM SCT060 BKN250 17/02 A3006 RMK AO2 SLP180 T01720022
cycle: 23

Station Type Date Time Source
KYNG TAF 2021/04/13 18:24 UTC NOAA

KYNG 131720Z 1318/1418 27006KT P6SM SCT250
FM140000 VRB03KT P6SM SCT250
FM141700 25006KT P6SM SCT200

Example: see airport list